Observation data for Plains on 02/22/2019      Previous  Date  Next       Current Mesonet Observations  Soil Data  Daily Summary Page  Observations in Plain Language
KPPS 220600Z 12014G19KT 05/M02 A2982 RMK A01 T00491019  RH  062%=      5-min Rain = 0
KPPS 220605Z 12012KT 05/M02 A2983 RMK A01 T00481018  RH  063%=      5-min Rain = 0
KPPS 220610Z 12011G16KT 05/M02 A2983 RMK A01 T00461019  RH  063%=      5-min Rain = 0
KPPS 220615Z 12010KT 04/M02 A2983 RMK A01 T00431019  RH  065%=      5-min Rain = 0
KPPS 220620Z 12008KT 04/M02 A2983 RMK A01 T00411019  RH  065%=      5-min Rain = 0
KPPS 220625Z 11008KT 04/M02 A2983 RMK A01 T00391019  RH  066%=      5-min Rain = 0
KPPS 220630Z 12007KT 04/M02 A2983 RMK A01 T00371019  RH  067%=      5-min Rain = 0
KPPS 220635Z 11009KT 03/M02 A2983 RMK A01 T00341019  RH  069%=      5-min Rain = 0
KPPS 220640Z 11008KT 03/M02 A2983 RMK A01 T00321019  RH  070%=      5-min Rain = 0
KPPS 220645Z 11009KT 03/M02 A2983 RMK A01 T00301018  RH  071%=      5-min Rain = 0
KPPS 220650Z 12009KT 03/M02 A2983 RMK A01 T00291018  RH  072%=      5-min Rain = 0
KPPS 220655Z 12009KT 03/M02 A2983 RMK A01 T00281017  RH  073%=      5-min Rain = 0
KPPS 220700Z 12009KT 03/M02 A2983 RMK A01 T00271017  RH  074%=      5-min Rain = 0
KPPS 220705Z 12009KT 03/M02 A2983 RMK A01 T00261016  RH  075%=      5-min Rain = 0
KPPS 220710Z 12009KT 03/M02 A2983 RMK A01 T00251015  RH  075%=      5-min Rain = 0
KPPS 220715Z 12009KT 02/M02 A2983 RMK A01 T00231015  RH  076%=      5-min Rain = 0
KPPS 220720Z 12010KT 02/M02 A2984 RMK A01 T00221015  RH  077%=      5-min Rain = 0
KPPS 220725Z 12009KT 02/M01 A2984 RMK A01 T00221014  RH  078%=      5-min Rain = 0
KPPS 220730Z 12008KT 02/M01 A2984 RMK A01 T00211014  RH  079%=      5-min Rain = 0
KPPS 220735Z 12008KT 02/M01 A2984 RMK A01 T00191014  RH  079%=      5-min Rain = 0
KPPS 220740Z 12008KT 02/M01 A2984 RMK A01 T00191013  RH  080%=      5-min Rain = 0
KPPS 220745Z 12007KT 02/M01 A2985 RMK A01 T00181014  RH  081%=      5-min Rain = 0
KPPS 220750Z 11006KT 02/M02 A2985 RMK A01 T00151015  RH  081%=      5-min Rain = 0
KPPS 220755Z 10006KT 02/M01 A2985 RMK A01 T00151014  RH  082%=      5-min Rain = 0
KPPS 220800Z 10006KT 01/M02 A2985 RMK A01 T00131015  RH  082%=      5-min Rain = 0
KPPS 220805Z 10006KT 01/M02 A2985 RMK A01 T00121015  RH  082%=      5-min Rain = 0
KPPS 220810Z 10007KT 01/M02 A2985 RMK A01 T00111016  RH  083%=      5-min Rain = 0
KPPS 220815Z 10006KT 01/M02 A2985 RMK A01 T00111016  RH  083%=      5-min Rain = 0
KPPS 220820Z 10006KT 01/M02 A2985 RMK A01 T00091017  RH  084%=      5-min Rain = 0
KPPS 220825Z 10006KT 01/M02 A2986 RMK A01 T00081017  RH  084%=      5-min Rain = 0
KPPS 220830Z 10005KT 01/M02 A2986 RMK A01 T00061018  RH  085%=      5-min Rain = 0
KPPS 220835Z 10006KT 01/M02 A2986 RMK A01 T00051018  RH  085%=      5-min Rain = 0
KPPS 220840Z 09006KT 00/M02 A2986 RMK A01 T00031019  RH  086%=      5-min Rain = 0
KPPS 220845Z 08006KT 00/M02 A2986 RMK A01 T00021020  RH  086%=      5-min Rain = 0
KPPS 220850Z 09006KT M00/M02 A2986 RMK A01 T10011022  RH  086%=      5-min Rain = 0
KPPS 220855Z 09007KT M00/M02 A2985 RMK A01 T10031022  RH  087%=      5-min Rain = 0
KPPS 220900Z 09008KT M00/M02 A2985 RMK A01 T10041023  RH  087%=      5-min Rain = 0
KPPS 220905Z 09006KT M00/M02 A2986 RMK A01 T10031022  RH  087%=      5-min Rain = 0
KPPS 220910Z 09006KT M00/M02 A2986 RMK A01 T10021022  RH  087%=      5-min Rain = 0
KPPS 220915Z 09007KT M00/M02 A2985 RMK A01 T10021021  RH  088%=      5-min Rain = 0
KPPS 220920Z 09007KT M00/M02 A2985 RMK A01 T10021021  RH  087%=      5-min Rain = 0
KPPS 220925Z 09007KT M00/M02 A2985 RMK A01 T10031021  RH  088%=      5-min Rain = 0
KPPS 220930Z 09006KT M00/M02 A2985 RMK A01 T10021021  RH  088%=      5-min Rain = 0
KPPS 220935Z 09007KT M00/M02 A2985 RMK A01 T10041022  RH  088%=      5-min Rain = 0
KPPS 220940Z 09006KT M00/M02 A2985 RMK A01 T10041022  RH  088%=      5-min Rain = 0
KPPS 220945Z 08006KT M01/M03 A2985 RMK A01 T10081026  RH  088%=      5-min Rain = 0
KPPS 220950Z 08007KT M01/M03 A2985 RMK A01 T10121029  RH  089%=      5-min Rain = 0
KPPS 220955Z 08007KT M02/M03 A2984 RMK A01 T10151031  RH  090%=      5-min Rain = 0
KPPS 221000Z 08006KT M02/M03 A2985 RMK A01 T10161030  RH  091%=      5-min Rain = 0
KPPS 221005Z 07007KT M02/M03 A2985 RMK A01 T10171031  RH  091%=      5-min Rain = 0
KPPS 221010Z 08007KT M02/M03 A2984 RMK A01 T10181031  RH  091%=      5-min Rain = 0
KPPS 221015Z 08007KT M02/M03 A2984 RMK A01 T10201032  RH  092%=      5-min Rain = 0
KPPS 221020Z 07007KT M02/M03 A2985 RMK A01 T10201031  RH  092%=      5-min Rain = 0
KPPS 221025Z 06006KT M02/M03 A2985 RMK A01 T10181029  RH  093%=      5-min Rain = 0
KPPS 221030Z 06007KT M02/M03 A2985 RMK A01 T10171028  RH  092%=      5-min Rain = 0
KPPS 221035Z 06007KT M01/M03 A2985 RMK A01 T10131025  RH  092%=      5-min Rain = 0
KPPS 221040Z 07007KT M02/M03 A2985 RMK A01 T10151028  RH  091%=      5-min Rain = 0
KPPS 221045Z 08007KT M02/M03 A2985 RMK A01 T10191031  RH  092%=      5-min Rain = 0
KPPS 221050Z 08007KT M02/M03 A2985 RMK A01 T10171027  RH  093%=      5-min Rain = 0
KPPS 221055Z 09007KT M01/M02 A2985 RMK A01 T10131024  RH  093%=      5-min Rain = 0
KPPS 221100Z 09007KT M01/M02 A2985 RMK A01 T10131024  RH  093%=      5-min Rain = 0
KPPS 221105Z 08007KT M01/M03 A2985 RMK A01 T10141025  RH  092%=      5-min Rain = 0
KPPS 221110Z 07006KT M02/M03 A2985 RMK A01 T10181030  RH  092%=      5-min Rain = 0
KPPS 221115Z 07006KT M02/M03 A2985 RMK A01 T10211031  RH  093%=      5-min Rain = 0
KPPS 221120Z 07007KT M02/M03 A2985 RMK A01 T10201029  RH  094%=      5-min Rain = 0
KPPS 221125Z 06007KT M02/M03 A2985 RMK A01 T10211030  RH  094%=      5-min Rain = 0
KPPS 221130Z 05006KT M02/M03 A2985 RMK A01 T10211030  RH  094%=      5-min Rain = 0
KPPS 221135Z 04006KT M02/M03 A2985 RMK A01 T10201030  RH  093%=      5-min Rain = 0
KPPS 221140Z 05006KT M02/M03 A2986 RMK A01 T10221034  RH  092%=      5-min Rain = 0
KPPS 221145Z 05006KT M02/M04 A2986 RMK A01 T10241036  RH  092%=      5-min Rain = 0
KPPS 221150Z 06006KT M03/M04 A2986 RMK A01 T10251037  RH  092%=      5-min Rain = 0
KPPS 221155Z 06006KT M03/M04 A2986 RMK A01 T10261039  RH  092%=      5-min Rain = 0
KPPS 221200Z 06006KT M03/M04 A2986 RMK A01 T10281040  RH  092%=      5-min Rain = 0
KPPS 221205Z 06007KT M03/M04 A2986 RMK A01 T10281041  RH  091%=      5-min Rain = 0
KPPS 221210Z 06008KT M03/M04 A2986 RMK A01 T10281042  RH  091%=      5-min Rain = 0
KPPS 221215Z 06007KT M03/M04 A2986 RMK A01 T10291044  RH  090%=      5-min Rain = 0
KPPS 221220Z 06007KT M03/M04 A2987 RMK A01 T10291043  RH  090%=      5-min Rain = 0
KPPS 221225Z 07007KT M03/M04 A2987 RMK A01 T10281041  RH  091%=      5-min Rain = 0
KPPS 221230Z 07007KT M02/M04 A2987 RMK A01 T10241038  RH  091%=      5-min Rain = 0
KPPS 221235Z 07007KT M02/M03 A2987 RMK A01 T10201034  RH  091%=      5-min Rain = 0
KPPS 221240Z 07007KT M02/M03 A2988 RMK A01 T10171032  RH  090%=      5-min Rain = 0
KPPS 221245Z 08008KT M01/M03 A2987 RMK A01 T10141030  RH  090%=      5-min Rain = 0
KPPS 221250Z 09008KT M01/M03 A2987 RMK A01 T10131029  RH  090%=      5-min Rain = 0
KPPS 221255Z 09008KT M01/M03 A2987 RMK A01 T10111027  RH  090%=      5-min Rain = 0
KPPS 221300Z 10007KT M01/M03 A2987 RMK A01 T10101025  RH  090%=      5-min Rain = 0
KPPS 221305Z 10006KT M01/M02 A2987 RMK A01 T10091024  RH  090%=      5-min Rain = 0
KPPS 221310Z 10006KT M01/M02 A2987 RMK A01 T10071021  RH  091%=      5-min Rain = 0
KPPS 221315Z 09006KT M01/M02 A2988 RMK A01 T10051018  RH  092%=      5-min Rain = 0
KPPS 221320Z 08006KT M00/M02 A2988 RMK A01 T10041016  RH  093%=      5-min Rain = 0
KPPS 221325Z 08007KT M00/M02 A2988 RMK A01 T10041015  RH  093%=      5-min Rain = 0
KPPS 221330Z 09007KT M00/M02 A2988 RMK A01 T10041015  RH  093%=      5-min Rain = 0
KPPS 221335Z 09007KT M00/M02 A2988 RMK A01 T10041015  RH  093%=      5-min Rain = 0
KPPS 221340Z 08007KT M00/M01 A2988 RMK A01 T10041013  RH  094%=      5-min Rain = 0
KPPS 221345Z 09007KT M00/M01 A2988 RMK A01 T10021011  RH  095%=      5-min Rain = 0
KPPS 221350Z 09007KT M00/M01 A2988 RMK A01 T10011010  RH  095%=      5-min Rain = 0
KPPS 221355Z 09008KT 00/01 A2988 RMK A01 T00-000-9  RH  095%=      5-min Rain = 0
KPPS 221400Z 10008KT 00/M01 A2989 RMK A01 T00011008  RH  095%=      5-min Rain = 0
KPPS 221405Z 09008KT 00/M01 A2989 RMK A01 T00021007  RH  095%=      5-min Rain = 0
KPPS 221410Z 09008KT 00/M01 A2989 RMK A01 T00031007  RH  094%=      5-min Rain = 0
KPPS 221415Z 10007KT 00/M01 A2989 RMK A01 T00041006  RH  094%=      5-min Rain = 0
KPPS 221420Z 10006KT 01/M01 A299 RMK A01 T00051006  RH  093%=      5-min Rain = 0
KPPS 221425Z 11006KT 01/M00 A299 RMK A01 T00071004  RH  093%=      5-min Rain = 0
KPPS 221430Z 11007KT 01/M00 A2991 RMK A01 T00091002  RH  094%=      5-min Rain = 0
KPPS 221435Z 11008KT 01/00 A2991 RMK A01 T00100000  RH  095%=      5-min Rain = 0
KPPS 221440Z 11008KT 01/00 A2991 RMK A01 T00100002  RH  095%=      5-min Rain = 0
KPPS 221445Z 12009KT 01/00 A2991 RMK A01 T00110004  RH  096%=      5-min Rain = 0
KPPS 221450Z 12008KT 01/01 A2991 RMK A01 T00120006  RH  097%=      5-min Rain = 0
KPPS 221455Z 12009KT 01/01 A2992 RMK A01 T00140008  RH  097%=      5-min Rain = 0
KPPS 221500Z 12009KT 02/01 A2992 RMK A01 T00150009  RH  097%=      5-min Rain = 0
KPPS 221505Z 12009KT 02/01 A2992 RMK A01 T00170012  RH  097%=      5-min Rain = 0
KPPS 221510Z 13009KT 02/01 A2992 RMK A01 T00190014  RH  098%=      5-min Rain = 0
KPPS 221515Z 13009KT 02/02 A2992 RMK A01 T00210015  RH  098%=      5-min Rain = 0
KPPS 221520Z 13011KT 02/02 A2992 RMK A01 T00220017  RH  098%=      5-min Rain = 0
KPPS 221525Z 13010KT 02/02 A2992 RMK A01 T00240019  RH  098%=      5-min Rain = 0
KPPS 221530Z 13010KT 03/02 A2992 RMK A01 T00250020  RH  098%=      5-min Rain = 0
KPPS 221535Z 13010KT 03/02 A2992 RMK A01 T00270022  RH  098%=      5-min Rain = 0
KPPS 221540Z 13010KT 03/02 A2992 RMK A01 T00290023  RH  098%=      5-min Rain = 0
KPPS 221545Z 14011KT 03/02 A2992 RMK A01 T00300024  RH  098%=      5-min Rain = 0
KPPS 221550Z 14012KT 03/03 A2992 RMK A01 T00310025  RH  097%=      5-min Rain = 0
KPPS 221555Z 14011KT 03/03 A2992 RMK A01 T00330027  RH  097%=      5-min Rain = 0
KPPS 221600Z 14010KT 04/03 A2993 RMK A01 T00360028  RH  096%=      5-min Rain = 0
KPPS 221605Z 15010KT 04/03 A2992 RMK A01 T00380029  RH  095%=      5-min Rain = 0
KPPS 221610Z 14010KT 04/03 A2993 RMK A01 T00370027  RH  095%=      5-min Rain = 0
KPPS 221615Z 14010KT 04/03 A2993 RMK A01 T00380027  RH  094%=      5-min Rain = 0
KPPS 221620Z 14008KT 04/03 A2993 RMK A01 T00390027  RH  094%=      5-min Rain = 0
KPPS 221625Z 14007KT 04/03 A2993 RMK A01 T00410028  RH  093%=      5-min Rain = 0
KPPS 221630Z 14008KT 04/03 A2992 RMK A01 T00430028  RH  092%=      5-min Rain = 0
KPPS 221635Z 14008KT 05/03 A2992 RMK A01 T00450028  RH  090%=      5-min Rain = 0
KPPS 221640Z 14008KT 05/03 A2992 RMK A01 T00470029  RH  089%=      5-min Rain = 0
KPPS 221645Z 14007KT 05/03 A2992 RMK A01 T00460027  RH  089%=      5-min Rain = 0
KPPS 221650Z 14007KT 05/03 A2992 RMK A01 T00460027  RH  089%=      5-min Rain = 0
KPPS 221655Z 15008KT 05/03 A2992 RMK A01 T00490027  RH  087%=      5-min Rain = 0
KPPS 221700Z 14006KT 05/03 A2992 RMK A01 T00510027  RH  086%=      5-min Rain = 0
KPPS 221705Z 14008KT 05/03 A2992 RMK A01 T00530028  RH  085%=      5-min Rain = 0
KPPS 221710Z 15007KT 05/03 A2992 RMK A01 T00540027  RH  084%=      5-min Rain = 0
KPPS 221715Z 14007KT 06/03 A2992 RMK A01 T00560028  RH  084%=      5-min Rain = 0
KPPS 221720Z 14007KT 06/03 A2992 RMK A01 T00590026  RH  081%=      5-min Rain = 0
KPPS 221725Z 14007KT 06/03 A2992 RMK A01 T00590027  RH  081%=      5-min Rain = 0
KPPS 221730Z 13007KT 06/03 A2992 RMK A01 T00590027  RH  081%=      5-min Rain = 0
KPPS 221735Z 12005G10KT 06/03 A2992 RMK A01 T00630028  RH  079%=      5-min Rain = 0
KPPS 221740Z 14007KT 07/03 A2991 RMK A01 T00720030  RH  076%=      5-min Rain = 0
KPPS 221745Z 14006KT 07/03 A2991 RMK A01 T00710027  RH  075%=      5-min Rain = 0
KPPS 221750Z 14007KT 08/03 A2991 RMK A01 T00770027  RH  072%=      5-min Rain = 0
KPPS 221755Z 12007KT 08/03 A299 RMK A01 T00750029  RH  074%=      5-min Rain = 0
KPPS 221800Z 14008KT 08/03 A299 RMK A01 T00810029  RH  071%=      5-min Rain = 0
KPPS 221805Z 16007KT 09/03 A299 RMK A01 T00850027  RH  068%=      5-min Rain = 0
KPPS 221810Z 13006G11KT 08/03 A299 RMK A01 T00840026  RH  068%=      5-min Rain = 0
KPPS 221815Z 13006KT 09/02 A299 RMK A01 T00880024  RH  065%=      5-min Rain = 0
KPPS 221820Z 11005KT 08/03 A2989 RMK A01 T00840025  RH  067%=      5-min Rain = 0
KPPS 221825Z 14005KT 09/03 A2989 RMK A01 T00920027  RH  065%=      5-min Rain = 0
KPPS 221830Z 14006KT 10/02 A2988 RMK A01 T00950024  RH  062%=      5-min Rain = 0
KPPS 221835Z 13006KT 10/03 A2988 RMK A01 T00980028  RH  063%=      5-min Rain = 0
KPPS 221840Z 11004KT 10/03 A2988 RMK A01 T00980029  RH  064%=      5-min Rain = 0
KPPS 221845Z 12006KT 10/03 A2988 RMK A01 T01020027  RH  061%=      5-min Rain = 0
KPPS 221850Z 14007KT 10/03 A2987 RMK A01 T01030028  RH  061%=      5-min Rain = 0
KPPS 221855Z 14006G12KT 11/03 A2987 RMK A01 T01080028  RH  059%=      5-min Rain = 0
KPPS 221900Z 14006KT 11/03 A2986 RMK A01 T01090025  RH  057%=      5-min Rain = 0
KPPS 221905Z 14005KT 11/03 A2986 RMK A01 T01140026  RH  056%=      5-min Rain = 0
KPPS 221910Z 15005KT 12/02 A2986 RMK A01 T01160019  RH  052%=      5-min Rain = 0
KPPS 221915Z 17005KT 12/02 A2985 RMK A01 T01200019  RH  051%=      5-min Rain = 0
KPPS 221920Z 16006KT 12/02 A2985 RMK A01 T01230015  RH  048%=      5-min Rain = 0
KPPS 221925Z 14006KT 13/02 A2985 RMK A01 T01260021  RH  049%=      5-min Rain = 0
KPPS 221930Z 16007KT 13/02 A2984 RMK A01 T01270015  RH  047%=      5-min Rain = 0
KPPS 221935Z 13008KT 13/02 A2984 RMK A01 T01320022  RH  048%=      5-min Rain = 0
KPPS 221940Z 16005KT 13/02 A2983 RMK A01 T01320023  RH  048%=      5-min Rain = 0
KPPS 221945Z 16008KT 14/01 A2983 RMK A01 T01360010  RH  043%=      5-min Rain = 0
KPPS 221950Z 17007KT 14/01 A2983 RMK A01 T01370008  RH  042%=      5-min Rain = 0
KPPS 221955Z 14006G12KT 14/01 A2982 RMK A01 T01400012  RH  042%=      5-min Rain = 0
KPPS 222000Z 15007KT 14/01 A2981 RMK A01 T01420008  RH  041%=      5-min Rain = 0
KPPS 222005Z 16007KT 14/M00 A2981 RMK A01 T01441004  RH  037%=      5-min Rain = 0
KPPS 222010Z 13008G13KT 14/02 A2981 RMK A01 T01420015  RH  043%=      5-min Rain = 0
KPPS 222015Z 11007KT 14/02 A2981 RMK A01 T01440015  RH  042%=      5-min Rain = 0
KPPS 222020Z 15008G13KT 15/00 A298 RMK A01 T01470002  RH  038%=      5-min Rain = 0
KPPS 222025Z 14008G13KT 15/00 A298 RMK A01 T01500004  RH  037%=      5-min Rain = 0
KPPS 222030Z 12008KT 15/01 A298 RMK A01 T01500009  RH  039%=      5-min Rain = 0
KPPS 222035Z 14009G15KT 15/00 A2979 RMK A01 T01530001  RH  036%=      5-min Rain = 0
KPPS 222040Z 14009KT 16/M00 A2979 RMK A01 T01551003  RH  035%=      5-min Rain = 0
KPPS 222045Z 13008G13KT 16/M01 A2979 RMK A01 T01561006  RH  033%=      5-min Rain = 0
KPPS 222050Z 16010KT 16/M01 A2979 RMK A01 T01611008  RH  032%=      5-min Rain = 0
KPPS 222055Z 15009G16KT 16/M01 A2978 RMK A01 T01601010  RH  032%=      5-min Rain = 0
KPPS 222100Z 16011KT 17/M02 A2978 RMK A01 T01651017  RH  029%=      5-min Rain = 0
KPPS 222105Z 17011G16KT 17/M04 A2978 RMK A01 T01661035  RH  025%=      5-min Rain = 0
KPPS 222110Z 17010G15KT 17/M04 A2978 RMK A01 T01651035  RH  025%=      5-min Rain = 0
KPPS 222115Z 17009G15KT 17/M03 A2978 RMK A01 T01681032  RH  025%=      5-min Rain = 0
KPPS 222120Z 16011KT 17/M03 A2977 RMK A01 T01721028  RH  026%=      5-min Rain = 0
KPPS 222125Z 15011KT 17/M03 A2977 RMK A01 T01711026  RH  026%=      5-min Rain = 0
KPPS 222130Z 15011KT 17/M02 A2977 RMK A01 T01741022  RH  026%=      5-min Rain = 0
KPPS 222135Z 16011G18KT 17/M03 A2977 RMK A01 T01711029  RH  025%=      5-min Rain = 0
KPPS 222140Z 16011G17KT 17/M03 A2977 RMK A01 T01711030  RH  025%=      5-min Rain = 0
KPPS 222145Z 16012KT 17/M03 A2977 RMK A01 T01721030  RH  025%=      5-min Rain = 0
KPPS 222150Z 17011G16KT 17/M03 A2977 RMK A01 T01741025  RH  026%=      5-min Rain = 0
KPPS 222155Z 17014G19KT 17/M03 A2977 RMK A01 T01731026  RH  026%=      5-min Rain = 0
KPPS 222200Z 15014G21KT 17/M02 A2977 RMK A01 T01711024  RH  026%=      5-min Rain = 0
KPPS 222205Z 15011KT 18/M02 A2976 RMK A01 T01751022  RH  026%=      5-min Rain = 0
KPPS 222210Z 16013G18KT 18/M02 A2976 RMK A01 T01771024  RH  025%=      5-min Rain = 0
KPPS 222215Z 15013G18KT 18/M03 A2976 RMK A01 T01751028  RH  025%=      5-min Rain = 0
KPPS 222220Z 15013G19KT 18/M03 A2976 RMK A01 T01751028  RH  025%=      5-min Rain = 0
KPPS 222225Z 15012KT 17/M03 A2976 RMK A01 T01741027  RH  025%=      5-min Rain = 0
KPPS 222230Z 15012G17KT 18/M02 A2976 RMK A01 T01751023  RH  026%=      5-min Rain = 0
KPPS 222235Z 14013G18KT 18/M02 A2975 RMK A01 T01761017  RH  027%=      5-min Rain = 0
KPPS 222240Z 15015G20KT 18/M02 A2975 RMK A01 T01751017  RH  027%=      5-min Rain = 0
KPPS 222245Z 15012KT 18/M02 A2975 RMK A01 T01771018  RH  027%=      5-min Rain = 0
KPPS 222250Z 15013G19KT 18/M02 A2975 RMK A01 T01771015  RH  027%=      5-min Rain = 0
KPPS 222255Z 14016G21KT 18/M02 A2975 RMK A01 T01761016  RH  027%=      5-min Rain = 0
KPPS 222300Z 14013G21KT 18/M02 A2975 RMK A01 T01751016  RH  027%=      5-min Rain = 0
KPPS 222305Z 14015G22KT 17/M02 A2974 RMK A01 T01741015  RH  028%=      5-min Rain = 0
KPPS 222310Z 14016G22KT 17/M02 A2974 RMK A01 T01741016  RH  028%=      5-min Rain = 0
KPPS 222315Z 15014G20KT 17/M02 A2974 RMK A01 T01731015  RH  028%=      5-min Rain = 0
KPPS 222320Z 14016KT 17/M01 A2974 RMK A01 T01731014  RH  028%=      5-min Rain = 0
KPPS 222325Z 15014KT 17/M01 A2974 RMK A01 T01721014  RH  028%=      5-min Rain = 0
KPPS 222330Z 14012KT 17/M01 A2974 RMK A01 T01711013  RH  029%=      5-min Rain = 0
KPPS 222335Z 14012KT 17/M01 A2973 RMK A01 T01711013  RH  029%=      5-min Rain = 0
KPPS 222340Z 14012G17KT 17/M01 A2973 RMK A01 T01691012  RH  029%=      5-min Rain = 0
KPPS 222345Z 13011KT 17/M01 A2973 RMK A01 T01681012  RH  030%=      5-min Rain = 0
KPPS 222350Z 13012KT 17/M01 A2973 RMK A01 T01681011  RH  030%=      5-min Rain = 0
KPPS 222355Z 13012KT 17/M01 A2973 RMK A01 T01671007  RH  031%=      5-min Rain = 0
KPPS 230000Z 12012KT 17/M01 A2973 RMK A01 T01661007  RH  031%=      5-min Rain = 0
KPPS 230005Z 13012KT 17/M01 A2972 RMK A01 T01651008  RH  031%=      5-min Rain = 0
KPPS 230010Z 13011KT 16/M01 A2972 RMK A01 T01631009  RH  031%=      5-min Rain = 0
KPPS 230015Z 11013G20KT 16/01 A2972 RMK A01 T01580013  RH  038%=      5-min Rain = 0
KPPS 230020Z 10015G21KT 15/04 A2972 RMK A01 T01490038  RH  048%=      5-min Rain = 0
KPPS 230025Z 09017KT 14/04 A2972 RMK A01 T01430044  RH  052%=      5-min Rain = 0
KPPS 230030Z 10015G21KT 14/05 A2972 RMK A01 T01380045  RH  054%=      5-min Rain = 0
KPPS 230035Z 10015KT 14/05 A2971 RMK A01 T01350046  RH  056%=      5-min Rain = 0
KPPS 230040Z 09016G23KT 13/05 A2971 RMK A01 T01290045  RH  058%=      5-min Rain = 0
KPPS 230045Z 09018G23KT 12/05 A2971 RMK A01 T01230047  RH  061%=      5-min Rain = 0
KPPS 230050Z 10015G20KT 12/05 A297 RMK A01 T01190047  RH  063%=      5-min Rain = 0
KPPS 230055Z 10016G21KT 12/05 A297 RMK A01 T01180048  RH  063%=      5-min Rain = 0
KPPS 230100Z 09016G21KT 12/05 A297 RMK A01 T01170048  RH  064%=      5-min Rain = 0
KPPS 230105Z 09016G22KT 11/05 A297 RMK A01 T01120046  RH  065%=      5-min Rain = 0
KPPS 230110Z 09018G25KT 11/05 A297 RMK A01 T01080045  RH  066%=      5-min Rain = 0
KPPS 230115Z 09016G22KT 11/05 A297 RMK A01 T01060045  RH  067%=      5-min Rain = 0
KPPS 230120Z 09016KT 10/05 A2969 RMK A01 T01030046  RH  069%=      5-min Rain = 0
KPPS 230125Z 09018G23KT 10/05 A2969 RMK A01 T01010047  RH  071%=      5-min Rain = 0
KPPS 230130Z 09016G21KT 10/05 A2969 RMK A01 T00980047  RH  072%=      5-min Rain = 0
KPPS 230135Z 09017KT 10/05 A2969 RMK A01 T00970048  RH  073%=      5-min Rain = 0
KPPS 230140Z 09017KT 10/05 A2969 RMK A01 T00960047  RH  073%=      5-min Rain = 0
KPPS 230145Z 09017KT 09/05 A2969 RMK A01 T00940047  RH  074%=      5-min Rain = 0
KPPS 230150Z 08016G23KT 09/05 A2969 RMK A01 T00920045  RH  074%=      5-min Rain = 0
KPPS 230155Z 09017G23KT 09/05 A2969 RMK A01 T00890045  RH  076%=      5-min Rain = 0
KPPS 230200Z 09017KT 09/05 A2969 RMK A01 T00870046  RH  077%=      5-min Rain = 0
KPPS 230205Z 09014KT 08/05 A2971 RMK A01 T00840046  RH  079%=      5-min Rain = 0
KPPS 230210Z 10011G16KT 08/05 A2972 RMK A01 T00830048  RH  080%=      5-min Rain = 0
KPPS 230215Z 10014KT 08/05 A2973 RMK A01 T00810048  RH  082%=      5-min Rain = 0
KPPS 230220Z 10013KT 08/05 A2973 RMK A01 T00790048  RH  082%=      5-min Rain = 0
KPPS 230225Z 10013KT 08/05 A2974 RMK A01 T00770048  RH  084%=      5-min Rain = 0
KPPS 230230Z 11014KT 07/05 A2974 RMK A01 T00730050  RH  087%=      5-min Rain = 0
KPPS 230235Z 11010G15KT 07/05 A2975 RMK A01 T00710052  RH  090%=      5-min Rain = 0
KPPS 230240Z 15007KT 07/05 A2977 RMK A01 T00700054  RH  092%=      5-min Rain = 0
KPPS 230245Z 19005KT 07/06 A2978 RMK A01 T00700056  RH  093%=      5-min Rain = 0
KPPS 230250Z 13004KT 07/06 A2977 RMK A01 T00700057  RH  093%=      5-min Rain = 0
KPPS 230255Z 09007KT 07/06 A2976 RMK A01 T00700058  RH  094%=      5-min Rain = 0
KPPS 230300Z 06011KT 07/06 A2974 RMK A01 T00690058  RH  095%=      5-min Rain = 0
KPPS 230305Z 07012KT 07/06 A2974 RMK A01 T00680059  RH  096%=      5-min Rain = 0
KPPS 230310Z 07010KT 07/06 A2975 RMK A01 T00680060  RH  097%=      5-min Rain = 0
KPPS 230315Z 07009KT 07/06 A2975 RMK A01 T00670059  RH  097%=      5-min Rain = 0
KPPS 230320Z 08009G14KT 07/06 A2975 RMK A01 T00670060  RH  097%=      5-min Rain = 0
KPPS 230325Z 08011KT 07/06 A2974 RMK A01 T00680061  RH  098%=      5-min Rain = 0
KPPS 230330Z 07012G18KT 07/06 A2972 RMK A01 T00670061  RH  098%=      5-min Rain = 0
KPPS 230335Z 07012KT 07/06 A2971 RMK A01 T00670060  RH  098%=      5-min Rain = 0
KPPS 230340Z 07012KT 07/06 A2972 RMK A01 T00670060  RH  098%=      5-min Rain = 0
KPPS 230345Z 07011G16KT 07/06 A2971 RMK A01 T00670061  RH  098%=      5-min Rain = 0
KPPS 230350Z 07012G18KT 07/06 A2971 RMK A01 T00670061  RH  098%=      5-min Rain = 0
KPPS 230355Z 07014G19KT 07/06 A297 RMK A01 T00670061  RH  098%=      5-min Rain = 0
KPPS 230400Z 09013G19KT 07/06 A297 RMK A01 T00670061  RH  098%=      5-min Rain = 0
KPPS 230405Z 09014G19KT 07/06 A297 RMK A01 T00670061  RH  098%=      5-min Rain = 0
KPPS 230410Z 08016G22KT 07/06 A2969 RMK A01 T00670061  RH  098%=      5-min Rain = 0
KPPS 230415Z 09013G19KT 07/06 A297 RMK A01 T00670061  RH  099%=      5-min Rain = 0
KPPS 230420Z 10011G16KT 07/06 A2974 RMK A01 T00670062  RH  099%=      5-min Rain = 0
KPPS 230425Z 10009KT 07/06 A2974 RMK A01 T00670062  RH  099%=      5-min Rain = 0
KPPS 230430Z 10011KT 07/06 A2973 RMK A01 T00680063  RH  099%=      5-min Rain = 0
KPPS 230435Z 09017G25KT 07/06 A297 RMK A01 T00690063  RH  099%=      5-min Rain = 0
KPPS 230440Z 09019G27KT 07/07 A2969 RMK A01 T00700065  RH  098%=      5-min Rain = 0
KPPS 230445Z 09015G20KT 07/06 A297 RMK A01 T00700063  RH  098%=      5-min Rain = 0
KPPS 230450Z 10011G16KT 07/06 A297 RMK A01 T00690063  RH  098%=      5-min Rain = 0
KPPS 230455Z 10009KT 07/06 A297 RMK A01 T00690063  RH  098%=      5-min Rain = 0
KPPS 230500Z 11008KT 07/06 A297 RMK A01 T00700064  RH  098%=      5-min Rain = 0
KPPS 230505Z 11010G15KT 07/07 A297 RMK A01 T00710065  RH  098%=      5-min Rain = 0
KPPS 230510Z 12010G15KT 07/07 A2971 RMK A01 T00710065  RH  098%=      5-min Rain = 0
KPPS 230515Z 12013KT 07/07 A2971 RMK A01 T00720066  RH  098%=      5-min Rain = 0
KPPS 230520Z 12015KT 07/07 A297 RMK A01 T00730066  RH  098%=      5-min Rain = 0
KPPS 230525Z 12016G22KT 07/07 A297 RMK A01 T00730066  RH  098%=      5-min Rain = 0
KPPS 230530Z 16011G19KT 07/07 A2973 RMK A01 T00720066  RH  098%=      5-min Rain = 0
KPPS 230535Z 26009KT 07/07 A2974 RMK A01 T00730067  RH  099%=      5-min Rain = 0
KPPS 230540Z 27010G16KT 07/07 A2973 RMK A01 T00740068  RH  098%=      5-min Rain = 0
KPPS 230545Z 24008KT 08/07 A2973 RMK A01 T00760068  RH  097%=      5-min Rain = 0.02
KPPS 230550Z 15012G18KT 08/07 A2973 RMK A01 T00770066  RH  095%=      5-min Rain = 0.01
KPPS 230555Z 17012KT 08/07 A2973 RMK A01 T00780066  RH  094%=      5-min Rain = 0

Page generated in 0.0303 seconds.